Time;durP1;ratioP1;P1;durP2;ratioP2;P2;SDS_P1;SDS_P2;PMS_P1;PMS_P2;Temp;Humidity;BMP_temperature;BMP_pressure;BME280_temperature;BME280_humidity;BME280_pressure;Samples;Min_cycle;Max_cycle;Signal;HPM_P1;HPM_P2
2021/11/19 00:00:44;;;;;;;4.18;1.90;;;;;;;-149.78;100.00;50393.22;5054441;28;20488;-60
2021/11/19 00:03:10;;;;;;;3.40;1.92;;;;;;;-149.78;100.00;50389.31;5054128;28;20056;-60
2021/11/19 00:05:36;;;;;;;4.32;1.55;;;;;;;-149.78;100.00;50404.94;5059551;28;20029;-60
2021/11/19 00:08:03;;;;;;;2.00;1.77;;;;;;;-149.78;100.00;50410.81;5063845;28;20438;-60
2021/11/19 00:10:29;;;;;;;2.55;1.65;;;;;;;-149.78;100.00;50430.38;5063013;28;20116;-60
2021/11/19 00:12:55;;;;;;;2.05;1.38;;;;;;;-149.78;100.00;50412.78;5064703;28;20036;-60
2021/11/19 00:15:21;;;;;;;2.33;1.38;;;;;;;-149.78;100.00;50418.63;5066054;28;20041;-60
2021/11/19 00:17:49;;;;;;;2.70;1.48;;;;;;;-149.78;100.00;50416.69;5063955;28;20503;-60
2021/11/19 00:20:18;;;;;;;1.55;1.20;;;;;;;-149.78;100.00;50416.69;5066561;28;20044;-60
2021/11/19 00:22:44;;;;;;;2.90;1.30;;;;;;;-149.78;100.00;50397.13;5062397;28;20033;-59
2021/11/19 00:25:10;;;;;;;1.48;1.17;;;;;;;-149.78;100.00;50416.69;5064292;28;20119;-60
2021/11/19 00:27:37;;;;;;;2.22;1.30;;;;;;;-149.78;100.00;50418.63;5066409;28;20064;-59
2021/11/19 00:30:10;;;;;;;5.32;1.63;;;;;;;-149.78;100.00;50408.84;5063918;28;20044;-60
2021/11/19 00:32:36;;;;;;;2.78;1.08;;;;;;;-149.78;100.00;50414.72;5064427;28;20495;-60
2021/11/19 00:35:04;;;;;;;2.22;1.40;;;;;;;-149.78;100.00;50399.09;5064776;28;20044;-60
2021/11/19 00:37:30;;;;;;;5.72;1.30;;;;;;;-149.78;100.00;50377.56;5058713;28;20159;-60
2021/11/19 00:39:55;;;;;;;3.10;1.58;;;;;;;-149.78;100.00;50408.84;5062851;28;20041;-60
2021/11/19 00:42:22;;;;;;;2.72;1.40;;;;;;;-149.78;100.00;50412.78;5061003;28;20041;-60
2021/11/19 00:44:48;;;;;;;3.47;1.42;;;;;;;-149.78;100.00;50393.22;5055627;28;20484;-59
2021/11/19 00:47:15;;;;;;;3.38;1.35;;;;;;;-149.78;100.00;50416.69;5057083;28;20033;-59
2021/11/19 00:49:42;;;;;;;4.30;1.42;;;;;;;-149.78;100.00;50420.59;5060865;28;20046;-60
2021/11/19 00:52:10;;;;;;;2.85;1.38;;;;;;;-149.78;100.00;50397.13;5061536;28;20028;-60
2021/11/19 00:54:36;;;;;;;3.40;1.27;;;;;;;-149.78;100.00;50408.84;5054268;28;20032;-60
2021/11/19 00:57:06;;;;;;;1.38;1.05;;;;;;;-149.78;100.00;50397.13;5066604;28;20106;-60
2021/11/19 00:59:34;;;;;;;5.05;1.60;;;;;;;-149.78;100.00;50412.78;5064965;28;20437;-59
2021/11/19 01:02:15;;;;;;;2.60;1.40;;;;;;;-149.78;100.00;50403.00;5068550;28;20038;-60
2021/11/19 01:04:41;;;;;;;1.30;0.90;;;;;;;-149.78;100.00;50418.63;5072697;28;20041;-60
2021/11/19 01:07:09;;;;;;;4.40;1.50;;;;;;;-149.78;100.00;50397.13;5064029;28;20024;-59
2021/11/19 01:09:40;;;;;;;2.05;1.25;;;;;;;-149.78;100.00;50391.25;5072528;28;20089;-60
2021/11/19 01:12:08;;;;;;;2.20;1.38;;;;;;;-149.78;100.00;50408.84;5064608;28;20036;-60
2021/11/19 01:14:41;;;;;;;4.35;1.45;;;;;;;-149.78;100.00;50420.59;5051975;28;20029;-60
2021/11/19 01:17:11;;;;;;;6.50;1.33;;;;;;;-149.78;100.00;50420.59;5062722;28;20054;-60
2021/11/19 01:19:44;;;;;;;3.08;1.50;;;;;;;-149.78;100.00;50387.34;5053291;28;20029;-60
2021/11/19 01:22:14;;;;;;;2.47;1.30;;;;;;;-149.78;100.00;50412.78;5061349;28;20036;-60
2021/11/19 01:24:41;;;;;;;6.85;1.63;;;;;;;-149.78;100.00;50440.16;5065049;28;20041;-60
2021/11/19 01:27:08;;;;;;;1.10;1.00;;;;;;;-149.78;100.00;50416.69;5055180;28;20060;-60
2021/11/19 01:29:34;;;;;;;3.25;1.30;;;;;;;-149.78;100.00;50420.59;5066844;28;20033;-60
2021/11/19 01:32:11;;;;;;;2.25;1.08;;;;;;;-149.78;100.00;50428.41;5056166;28;20045;-59
2021/11/19 01:34:37;;;;;;;4.30;1.40;;;;;;;-149.78;100.00;50401.03;5052341;28;20033;-59
2021/11/19 01:37:05;;;;;;;2.38;1.20;;;;;;;-149.78;100.00;50459.72;5056200;28;20045;-60
2021/11/19 01:39:33;;;;;;;2.35;1.40;;;;;;;-149.78;100.00;50416.69;5062910;28;20020;-60
2021/11/19 01:42:07;;;;;;;3.90;1.20;;;;;;;-149.78;100.00;50432.31;5069552;28;20047;-60
2021/11/19 01:45:04;;;;;;;2.28;1.35;;;;;;;-149.78;100.00;50399.09;5056283;28;20034;-59
2021/11/19 01:47:32;;;;;;;2.22;1.27;;;;;;;-149.78;100.00;50424.50;5059714;28;20168;-60
2021/11/19 01:49:58;;;;;;;2.70;1.30;;;;;;;-149.78;100.00;50432.31;5061640;28;20158;-60
2021/11/19 01:52:34;;;;;;;3.38;1.45;;;;;;;-149.78;100.00;50404.94;5052746;28;20029;-60
2021/11/19 01:55:06;;;;;;;2.65;1.50;;;;;;;-149.78;100.00;50412.78;5057985;28;20024;-60
2021/11/19 01:57:36;;;;;;;1.55;1.20;;;;;;;-149.78;100.00;50436.25;5067750;28;20025;-59
2021/11/19 02:00:08;;;;;;;5.68;1.40;;;;;;;-149.78;100.00;50428.41;5066406;28;20024;-59
2021/11/19 02:02:39;;;;;;;3.50;1.30;;;;;;;-149.78;100.00;50404.94;5066642;28;20038;-60
2021/11/19 02:05:14;;;;;;;3.63;1.35;;;;;;;-149.78;100.00;50436.25;5067753;28;20027;-60
2021/11/19 02:07:45;;;;;;;2.28;1.10;;;;;;;-149.78;100.00;50440.16;5057607;28;20037;-60
2021/11/19 02:10:19;;;;;;;3.95;1.40;;;;;;;-149.78;100.00;50447.97;5064888;28;20021;-60
2021/11/19 02:13:04;;;;;;;3.85;1.55;;;;;;;-149.78;100.00;50428.41;5060815;28;20115;-60
2021/11/19 02:15:36;;;;;;;4.70;1.20;;;;;;;-149.78;100.00;50477.31;5065505;28;20032;-60
2021/11/19 02:18:11;;;;;;;2.92;1.10;;;;;;;-149.78;100.00;50404.94;5063330;28;20033;-60
2021/11/19 02:20:41;;;;;;;4.43;1.13;;;;;;;-149.78;100.00;50418.63;5061199;28;20029;-60
2021/11/19 02:23:20;;;;;;;3.00;1.13;;;;;;;-149.78;100.00;50387.34;5060992;28;20033;-60
2021/11/19 02:26:10;;;;;;;1.92;1.00;;;;;;;-149.78;100.00;50424.50;5071064;28;20030;-60
2021/11/19 02:28:39;;;;;;;1.30;0.80;;;;;;;-149.78;100.00;50408.84;5068068;28;20028;-60
2021/11/19 02:31:11;;;;;;;1.67;0.93;;;;;;;-149.78;100.00;50440.16;5059205;28;20075;-60
2021/11/19 02:33:40;;;;;;;6.72;0.90;;;;;;;-149.78;100.00;50428.41;5052289;28;20032;-59
2021/11/19 02:36:13;;;;;;;3.15;1.00;;;;;;;-149.78;100.00;50420.59;5055969;28;20503;-60
2021/11/19 02:38:44;;;;;;;3.95;1.10;;;;;;;-149.78;100.00;50424.50;5063629;28;20044;-60
2021/11/19 02:41:12;;;;;;;3.42;0.98;;;;;;;-149.78;100.00;50436.25;5057799;28;20496;-59
2021/11/19 02:43:45;;;;;;;3.58;0.80;;;;;;;-149.78;100.00;50412.78;5056217;28;20068;-59
2021/11/19 02:46:28;;;;;;;1.38;0.93;;;;;;;-149.78;100.00;50420.59;5057021;28;20117;-60
2021/11/19 02:48:54;;;;;;;3.25;1.15;;;;;;;-149.78;100.00;50404.94;5049870;28;20429;-60
2021/11/19 02:51:23;;;;;;;2.88;1.10;;;;;;;-149.78;100.00;50381.47;5059377;28;20029;-60
2021/11/19 02:53:50;;;;;;;4.68;1.10;;;;;;;-149.78;100.00;50389.31;5064288;28;20112;-60
2021/11/19 02:56:17;;;;;;;1.40;0.88;;;;;;;-149.78;100.00;50420.59;5052730;28;20033;-60
2021/11/19 02:58:48;;;;;;;3.55;0.95;;;;;;;-149.78;100.00;50428.41;5058407;28;20037;-60
2021/11/19 03:01:28;;;;;;;2.80;1.00;;;;;;;-149.78;100.00;50420.59;5058382;28;20369;-60
2021/11/19 03:04:00;;;;;;;1.52;0.75;;;;;;;-149.78;100.00;50385.38;5053725;28;20029;-60
2021/11/19 03:06:26;;;;;;;5.03;1.10;;;;;;;-149.78;100.00;50420.59;5057202;28;20108;-60
2021/11/19 03:08:52;;;;;;;2.00;0.80;;;;;;;-149.78;100.00;50416.69;5054637;28;20461;-60
2021/11/19 03:11:17;;;;;;;3.40;0.82;;;;;;;-149.78;100.00;50397.13;5059391;28;20094;-60
2021/11/19 03:13:43;;;;;;;4.00;0.93;;;;;;;-149.78;100.00;50440.16;5056921;28;20060;-61
2021/11/19 03:16:09;;;;;;;1.83;0.90;;;;;;;-149.78;100.00;50403.00;5048975;28;20044;-60
2021/11/19 03:18:36;;;;;;;3.42;1.00;;;;;;;-149.78;100.00;50436.25;5057070;28;20135;-60
2021/11/19 03:21:06;;;;;;;3.55;1.02;;;;;;;-149.78;100.00;50436.25;5053871;28;20033;-60
2021/11/19 03:23:34;;;;;;;1.58;0.93;;;;;;;-149.78;100.00;50424.50;5060260;28;20391;-60
2021/11/19 03:26:03;;;;;;;1.13;0.93;;;;;;;-149.78;100.00;50399.09;5062520;28;20058;-60
2021/11/19 03:28:30;;;;;;;4.13;1.00;;;;;;;-149.78;100.00;50455.81;5069002;28;20033;-60
2021/11/19 03:30:59;;;;;;;2.25;1.10;;;;;;;-149.78;100.00;50414.72;5063144;28;20083;-60
2021/11/19 03:33:27;;;;;;;3.67;1.27;;;;;;;-149.78;100.00;50408.84;5061947;28;20028;-59
2021/11/19 03:35:53;;;;;;;1.55;0.90;;;;;;;-149.78;100.00;50420.59;5063548;28;20041;-60
2021/11/19 03:38:23;;;;;;;2.08;0.70;;;;;;;-149.78;100.00;50416.69;5057873;28;20115;-59
2021/11/19 03:40:51;;;;;;;6.85;1.00;;;;;;;-149.78;100.00;50444.06;5063402;28;20039;-60
2021/11/19 03:43:23;;;;;;;0.90;0.80;;;;;;;-149.78;100.00;50436.25;5064219;28;20082;-60
2021/11/19 03:45:54;;;;;;;2.22;0.90;;;;;;;-149.78;100.00;50432.31;5064260;28;20029;-60
2021/11/19 03:48:20;;;;;;;2.42;0.90;;;;;;;-149.78;100.00;50428.41;5061638;28;20044;-59
2021/11/19 03:50:53;;;;;;;2.22;0.75;;;;;;;-149.78;100.00;50412.78;5061713;28;20040;-60
2021/11/19 03:53:20;;;;;;;1.38;0.80;;;;;;;-149.78;100.00;50428.41;5070306;28;20035;-60
2021/11/19 03:55:49;;;;;;;3.70;1.35;;;;;;;-149.78;100.00;50404.94;5068413;28;20044;-60
2021/11/19 03:58:22;;;;;;;1.95;1.10;;;;;;;-149.78;100.00;50377.56;5054529;28;20052;-59
2021/11/19 04:00:51;;;;;;;2.38;1.10;;;;;;;-149.78;100.00;50401.03;5059164;28;20029;-60
2021/11/19 04:03:18;;;;;;;6.78;1.30;;;;;;;-149.78;100.00;50412.78;5068061;28;20036;-60
2021/11/19 04:05:45;;;;;;;3.83;1.20;;;;;;;-149.78;100.00;50397.13;5072155;28;20035;-59
2021/11/19 04:08:12;;;;;;;2.55;1.10;;;;;;;-149.78;100.00;50387.34;5069734;28;20043;-60
2021/11/19 04:10:38;;;;;;;3.58;1.20;;;;;;;-149.78;100.00;50416.69;5061040;28;20036;-60
2021/11/19 04:13:06;;;;;;;2.83;1.20;;;;;;;-149.78;100.00;50424.50;5069691;28;20039;-60
2021/11/19 04:15:49;;;;;;;2.92;1.30;;;;;;;-149.78;100.00;50408.84;5068133;28;20029;-60
2021/11/19 04:18:15;;;;;;;2.75;1.08;;;;;;;-149.78;100.00;50389.31;5057746;28;20039;-60
2021/11/19 04:20:41;;;;;;;3.10;1.30;;;;;;;-149.78;100.00;50412.78;5057373;28;20029;-59
2021/11/19 04:23:07;;;;;;;1.30;1.00;;;;;;;-149.78;100.00;50408.84;5068078;28;20036;-60
2021/11/19 04:25:33;;;;;;;1.75;1.10;;;;;;;-149.78;100.00;50377.56;5070357;28;20119;-60
2021/11/19 04:27:59;;;;;;;1.73;1.20;;;;;;;-149.78;100.00;50393.22;5067207;28;20123;-60
2021/11/19 04:30:32;;;;;;;4.13;1.15;;;;;;;-149.78;100.00;50428.41;5074036;28;20029;-60
2021/11/19 04:32:59;;;;;;;2.85;1.33;;;;;;;-149.78;100.00;50440.16;5059124;28;20052;-60
2021/11/19 04:35:26;;;;;;;2.60;1.25;;;;;;;-149.78;100.00;50401.03;5052778;28;20040;-60
2021/11/19 04:37:53;;;;;;;2.05;1.20;;;;;;;-149.78;100.00;50383.44;5054131;28;20033;-59
2021/11/19 04:40:20;;;;;;;6.53;1.60;;;;;;;-149.78;100.00;50440.16;5070492;28;20047;-60
2021/11/19 04:42:47;;;;;;;5.07;1.38;;;;;;;-149.78;100.00;50399.09;5073387;28;20082;-60
2021/11/19 04:45:17;;;;;;;3.47;1.50;;;;;;;-149.78;100.00;50401.03;5071639;28;20033;-59
2021/11/19 04:47:44;;;;;;;2.70;1.20;;;;;;;-149.78;100.00;50428.41;5073410;28;20029;-60
2021/11/19 04:50:12;;;;;;;1.90;1.25;;;;;;;-149.78;100.00;50401.03;5078029;28;20042;-60
2021/11/19 04:52:38;;;;;;;3.35;1.45;;;;;;;-149.78;100.00;50424.50;5066226;28;20033;-60
2021/11/19 04:55:06;;;;;;;2.25;1.40;;;;;;;-149.78;100.00;50414.72;5066898;28;20047;-60
2021/11/19 04:57:33;;;;;;;5.28;1.70;;;;;;;-149.78;100.00;50393.22;5066359;28;20503;-60
2021/11/19 04:59:59;;;;;;;4.40;1.60;;;;;;;-149.78;100.00;50412.78;5063315;28;20499;-60
2021/11/19 05:02:27;;;;;;;5.55;1.75;;;;;;;-149.78;100.00;50401.03;5066461;28;20033;-59
2021/11/19 05:04:53;;;;;;;3.65;1.67;;;;;;;-149.78;100.00;50432.31;5066877;28;20044;-60
2021/11/19 05:07:20;;;;;;;3.58;1.50;;;;;;;-149.78;100.00;50408.84;5068900;28;20537;-60
2021/11/19 05:09:45;;;;;;;2.05;1.45;;;;;;;-149.78;100.00;50401.03;5066380;28;20092;-60
2021/11/19 05:12:28;;;;;;;6.00;1.80;;;;;;;-149.78;100.00;50428.41;5072067;28;20161;-59
2021/11/19 05:14:53;;;;;;;2.75;1.48;;;;;;;-149.78;100.00;50385.38;5064561;28;20028;-60
2021/11/19 05:17:22;;;;;;;6.70;1.50;;;;;;;-149.78;100.00;50430.38;5065988;28;20028;-60
2021/11/19 05:19:48;;;;;;;4.47;1.55;;;;;;;-149.78;100.00;50404.94;5065166;28;20043;-60
2021/11/19 05:22:14;;;;;;;5.28;1.75;;;;;;;-149.78;100.00;50424.50;5062346;28;20037;-60
2021/11/19 05:24:39;;;;;;;3.78;1.40;;;;;;;-149.78;100.00;50428.41;5067874;28;20036;-59
2021/11/19 05:27:05;;;;;;;1.95;1.40;;;;;;;-149.78;100.00;50404.94;5062594;28;20064;-60
2021/11/19 05:29:32;;;;;;;2.92;1.60;;;;;;;-149.78;100.00;50424.50;5067916;28;20028;-60
2021/11/19 05:31:58;;;;;;;2.78;1.65;;;;;;;-149.78;100.00;50432.31;5053524;28;20511;-60
2021/11/19 05:34:25;;;;;;;2.83;1.40;;;;;;;-149.78;100.00;50444.06;5052632;28;20029;-60
2021/11/19 05:36:51;;;;;;;4.80;1.75;;;;;;;-149.78;100.00;50434.28;5059546;28;20048;-60
2021/11/19 05:39:17;;;;;;;3.00;1.75;;;;;;;-149.78;100.00;50420.59;5070383;28;20043;-59
2021/11/19 05:41:43;;;;;;;2.47;1.08;;;;;;;-149.78;100.00;50404.94;5072227;28;20025;-60
2021/11/19 05:44:09;;;;;;;2.72;1.42;;;;;;;-149.78;100.00;50436.25;5071566;28;20036;-59
2021/11/19 05:46:40;;;;;;;2.58;1.20;;;;;;;-149.78;100.00;50385.38;5067092;28;20036;-59
2021/11/19 05:49:12;;;;;;;2.63;1.50;;;;;;;-149.78;100.00;50408.84;5071438;28;20549;-60
2021/11/19 05:51:39;;;;;;;2.55;1.60;;;;;;;-149.78;100.00;50420.59;5069017;28;20028;-60
2021/11/19 05:54:08;;;;;;;5.15;1.42;;;;;;;-149.78;100.00;50369.75;5061571;28;20416;-60
2021/11/19 05:56:35;;;;;;;4.40;1.40;;;;;;;-149.78;100.00;50455.81;5063186;28;20036;-60
2021/11/19 05:59:00;;;;;;;2.70;1.38;;;;;;;-149.78;100.00;50401.03;5068711;28;20037;-61
2021/11/19 06:01:26;;;;;;;5.00;1.33;;;;;;;-149.78;100.00;50424.50;5067217;28;20035;-61
2021/11/19 06:03:53;;;;;;;3.70;1.20;;;;;;;-149.78;100.00;50412.78;5062432;28;20032;-60
2021/11/19 06:06:20;;;;;;;2.65;1.55;;;;;;;-149.78;100.00;50422.56;5061249;28;20041;-63
2021/11/19 06:08:46;;;;;;;2.70;1.45;;;;;;;-149.78;100.00;50383.44;5066290;28;20412;-63
2021/11/19 06:11:18;;;;;;;4.60;1.60;;;;;;;-149.78;100.00;50447.97;5066222;28;20036;-60
2021/11/19 06:13:47;;;;;;;4.68;1.80;;;;;;;-149.78;100.00;50404.94;5070338;28;20063;-60
2021/11/19 06:16:20;;;;;;;4.68;1.70;;;;;;;-149.78;100.00;50385.38;5052006;28;20074;-60
2021/11/19 06:18:50;;;;;;;5.00;1.98;;;;;;;-149.78;100.00;50451.88;5053144;28;20491;-60
2021/11/19 06:21:23;;;;;;;4.88;1.83;;;;;;;-149.78;100.00;50420.59;5053194;28;20029;-60
2021/11/19 06:23:52;;;;;;;3.47;1.45;;;;;;;-149.78;100.00;50416.69;5061988;28;20028;-59
2021/11/19 06:26:22;;;;;;;2.28;1.38;;;;;;;-149.78;100.00;50387.34;5070032;28;20025;-59
2021/11/19 06:28:51;;;;;;;3.83;1.52;;;;;;;-149.78;100.00;50463.63;5053833;28;20025;-60
2021/11/19 06:31:21;;;;;;;3.75;1.60;;;;;;;-149.78;100.00;50420.59;5055578;28;20043;-60
2021/11/19 06:33:47;;;;;;;2.15;1.40;;;;;;;-149.78;100.00;50410.81;5052413;28;20120;-59
2021/11/19 06:36:14;;;;;;;2.83;1.58;;;;;;;-149.78;100.00;50428.41;5062153;28;20618;-60
2021/11/19 06:38:42;;;;;;;3.45;1.48;;;;;;;-149.78;100.00;50440.16;5060587;28;20480;-60
2021/11/19 06:41:08;;;;;;;3.95;1.40;;;;;;;-149.78;100.00;50397.13;5065983;28;20044;-60
2021/11/19 06:43:34;;;;;;;5.28;1.70;;;;;;;-149.78;100.00;50420.59;5066213;28;20102;-60
2021/11/19 06:46:00;;;;;;;3.35;1.50;;;;;;;-149.78;100.00;50432.31;5066722;28;20056;-60
2021/11/19 06:48:26;;;;;;;5.57;1.77;;;;;;;-149.78;100.00;50399.09;5064947;28;20032;-60
2021/11/19 06:50:52;;;;;;;4.07;1.55;;;;;;;-149.78;100.00;50463.63;5064778;28;20036;-60
2021/11/19 06:53:20;;;;;;;2.72;1.55;;;;;;;-149.78;100.00;50444.06;5065665;28;20479;-60
2021/11/19 06:55:46;;;;;;;2.80;1.50;;;;;;;-149.78;100.00;50436.25;5065580;28;20044;-60
2021/11/19 06:58:12;;;;;;;2.30;1.70;;;;;;;-149.78;100.00;50391.25;5068401;28;20093;-60
2021/11/19 07:00:46;;;;;;;14.15;3.70;;;;;;;-149.78;100.00;50451.88;5072382;28;20036;-60
2021/11/19 07:03:13;;;;;;;2.42;1.30;;;;;;;-149.78;100.00;50471.44;5070576;28;20038;-60
2021/11/19 07:05:39;;;;;;;2.97;1.67;;;;;;;-149.78;100.00;50447.97;5070953;28;20021;-60
2021/11/19 07:08:07;;;;;;;2.85;1.73;;;;;;;-149.78;100.00;50447.97;5071522;28;20040;-60
2021/11/19 07:10:35;;;;;;;2.30;1.50;;;;;;;-149.78;100.00;50459.72;5070354;28;20024;-59
2021/11/19 07:13:01;;;;;;;4.25;1.65;;;;;;;-149.78;100.00;50385.38;5074202;28;20035;-60
2021/11/19 07:15:27;;;;;;;4.88;1.77;;;;;;;-149.78;100.00;50416.69;5069411;28;20032;-59
2021/11/19 07:17:53;;;;;;;3.80;1.80;;;;;;;-149.78;100.00;50451.88;5072147;28;20024;-60
2021/11/19 07:20:22;;;;;;;2.45;1.58;;;;;;;-149.78;100.00;50428.41;5071400;28;20028;-59
2021/11/19 07:22:48;;;;;;;7.40;1.98;;;;;;;-149.78;100.00;50428.41;5069217;28;20078;-60
2021/11/19 07:25:17;;;;;;;4.28;1.70;;;;;;;-149.78;100.00;50440.16;5072985;28;20111;-60
2021/11/19 07:27:44;;;;;;;2.92;1.60;;;;;;;-149.78;100.00;50453.84;5073704;28;20060;-60
2021/11/19 07:30:14;;;;;;;3.15;1.83;;;;;;;-149.78;100.00;50414.72;5072929;28;20062;-60
2021/11/19 07:32:40;;;;;;;4.75;2.08;;;;;;;-149.78;100.00;50436.25;5059149;28;20169;-62
2021/11/19 07:35:06;;;;;;;6.32;2.25;;;;;;;-149.78;100.00;50438.19;5072237;28;20519;-63
2021/11/19 07:37:36;;;;;;;2.40;1.83;;;;;;;-149.78;100.00;50422.56;5074185;28;20024;-60
2021/11/19 07:40:02;;;;;;;2.97;1.98;;;;;;;-149.78;100.00;50408.84;5068468;28;20112;-59
2021/11/19 07:42:28;;;;;;;2.83;1.60;;;;;;;-149.78;100.00;50440.16;5060833;28;20029;-60
2021/11/19 07:44:53;;;;;;;2.75;1.50;;;;;;;-149.78;100.00;50416.69;5057894;28;20037;-60
2021/11/19 07:47:19;;;;;;;3.42;1.77;;;;;;;-149.78;100.00;50432.31;5065972;28;20043;-59
2021/11/19 07:49:45;;;;;;;3.33;1.80;;;;;;;-149.78;100.00;50440.16;5058749;28;20040;-60
2021/11/19 07:52:10;;;;;;;2.72;1.65;;;;;;;-149.78;100.00;50440.16;5064648;28;20041;-60
2021/11/19 07:54:37;;;;;;;3.60;1.80;;;;;;;-149.78;100.00;50428.41;5069582;28;20029;-59
2021/11/19 07:57:04;;;;;;;4.82;1.67;;;;;;;-149.78;100.00;50404.94;5070659;28;20078;-59
2021/11/19 07:59:31;;;;;;;2.75;2.13;;;;;;;-149.78;100.00;50428.41;5068474;28;20636;-61
2021/11/19 08:01:59;;;;;;;3.40;2.15;;;;;;;-149.78;100.00;50451.88;5069007;28;20387;-60
2021/11/19 08:04:27;;;;;;;3.20;2.03;;;;;;;-149.78;100.00;50436.25;5069813;28;20519;-60
2021/11/19 08:06:53;;;;;;;8.75;2.60;;;;;;;-149.78;100.00;50426.47;5072072;28;20032;-59
2021/11/19 08:09:20;;;;;;;5.82;2.50;;;;;;;-149.78;100.00;50389.31;5068903;28;20033;-60
2021/11/19 08:11:46;;;;;;;4.00;2.63;;;;;;;-149.78;100.00;50416.69;5067214;28;20103;-59
2021/11/19 08:14:12;;;;;;;5.68;3.03;;;;;;;-149.78;100.00;50385.38;5068119;28;20476;-60
2021/11/19 08:17:00;;;;;;;5.25;2.65;;;;;;;-149.78;100.00;50397.13;5082543;28;20407;-60
2021/11/19 08:19:29;;;;;;;7.85;3.40;;;;;;;-149.78;100.00;50393.22;5067340;28;20357;-59
2021/11/19 08:21:58;;;;;;;5.93;2.88;;;;;;;-149.78;100.00;50432.31;5069318;28;20029;-59
2021/11/19 08:24:25;;;;;;;5.18;2.90;;;;;;;-149.78;100.00;50418.63;5069425;28;20502;-60
2021/11/19 08:26:56;;;;;;;6.03;2.38;;;;;;;-149.78;100.00;50426.47;5070385;28;20036;-60
2021/11/19 08:29:29;;;;;;;3.95;2.45;;;;;;;-149.78;100.00;50447.97;5072538;28;20027;-60
2021/11/19 08:31:56;;;;;;;4.00;2.35;;;;;;;-149.78;100.00;50432.31;5070163;28;20077;-60
2021/11/19 08:34:23;;;;;;;4.60;2.88;;;;;;;-149.78;100.00;50410.81;5069756;28;20037;-60
2021/11/19 08:36:50;;;;;;;8.18;3.67;;;;;;;-149.78;100.00;50408.84;5068678;28;20041;-60
2021/11/19 08:39:19;;;;;;;5.50;2.90;;;;;;;-149.78;100.00;50373.66;5071403;28;20361;-60
2021/11/19 08:41:45;;;;;;;7.22;3.00;;;;;;;-149.78;100.00;50393.22;5067239;28;20432;-59
2021/11/19 08:44:11;;;;;;;5.03;3.10;;;;;;;-149.78;100.00;50420.59;5059674;28;20045;-60
2021/11/19 08:46:42;;;;;;;4.78;3.08;;;;;;;-149.78;100.00;50389.31;5068114;28;20032;-60
2021/11/19 08:49:10;;;;;;;5.45;3.38;;;;;;;-149.78;100.00;50389.31;5069322;28;20089;-60
2021/11/19 08:51:37;;;;;;;19.73;3.65;;;;;;;-149.78;100.00;50389.31;5070251;28;20364;-60
2021/11/19 08:54:06;;;;;;;19.00;3.53;;;;;;;-149.78;100.00;50393.22;5067665;28;20041;-60
2021/11/19 08:56:38;;;;;;;6.80;2.65;;;;;;;-149.78;100.00;50404.94;5070692;28;20044;-61
2021/11/19 08:59:08;;;;;;;8.87;3.40;;;;;;;-149.78;100.00;50404.94;5060856;28;20123;-61
2021/11/19 09:01:36;;;;;;;4.97;2.78;;;;;;;-149.78;100.00;50440.16;5062788;28;20035;-61
2021/11/19 09:04:02;;;;;;;4.55;2.72;;;;;;;-149.78;100.00;50432.31;5061967;28;20032;-61
2021/11/19 09:06:28;;;;;;;4.15;2.85;;;;;;;-149.78;100.00;50397.13;5067437;28;20111;-61
2021/11/19 09:08:54;;;;;;;7.45;3.20;;;;;;;-149.78;100.00;50424.50;5060304;28;20041;-61
2021/11/19 09:11:23;;;;;;;6.18;3.47;;;;;;;-149.78;100.00;50436.25;5069300;28;20055;-60
2021/11/19 09:13:51;;;;;;;6.05;4.82;;;;;;;-149.78;100.00;50397.13;5069428;28;20036;-60
2021/11/19 09:16:23;;;;;;;9.52;4.30;;;;;;;-149.78;100.00;50385.38;5070025;28;20484;-60
2021/11/19 09:19:10;;;;;;;6.95;5.10;;;;;;;-149.78;100.00;50397.13;5069402;28;20020;-60
2021/11/19 09:21:53;;;;;;;8.98;4.60;;;;;;;-149.78;100.00;50404.94;5069437;28;20028;-60
2021/11/19 09:24:31;;;;;;;8.43;4.40;;;;;;;-149.78;100.00;50408.84;5061077;28;20035;-60
2021/11/19 09:27:02;;;;;;;5.40;4.28;;;;;;;-149.78;100.00;50389.31;5062165;28;20030;-60
2021/11/19 09:29:34;;;;;;;7.50;4.90;;;;;;;-149.78;100.00;50401.03;5058922;28;20500;-60
2021/11/19 09:32:01;;;;;;;5.05;4.05;;;;;;;-149.78;100.00;50385.38;5068155;28;20040;-60
2021/11/19 09:34:30;;;;;;;4.68;3.13;;;;;;;-149.78;100.00;50381.47;5065459;28;20028;-60
2021/11/19 09:36:57;;;;;;;6.25;3.00;;;;;;;-149.78;100.00;50406.91;5061183;28;20036;-60
2021/11/19 09:39:26;;;;;;;5.63;3.60;;;;;;;-149.78;100.00;50414.72;5059835;28;20123;-60
2021/11/19 09:42:17;;;;;;;5.80;3.25;;;;;;;-149.78;100.00;50412.78;5071186;28;20032;-60
2021/11/19 09:45:21;;;;;;;4.05;2.75;;;;;;;-149.78;100.00;50428.41;5066788;28;20020;-60
2021/11/19 09:48:02;;;;;;;4.68;2.80;;;;;;;-149.78;100.00;50412.78;5070850;28;20035;-60
2021/11/19 09:50:46;;;;;;;3.80;2.40;;;;;;;-149.78;100.00;50412.78;5059949;28;20041;-60
2021/11/19 09:53:12;;;;;;;9.23;2.50;;;;;;;-149.78;100.00;50377.56;5071157;28;20280;-60
2021/11/19 09:56:15;;;;;;;4.43;2.47;;;;;;;-149.78;100.00;50389.31;5067594;28;20360;-60
2021/11/19 09:58:40;;;;;;;6.30;2.70;;;;;;;-149.78;100.00;50377.56;5066311;28;20032;-60
2021/11/19 10:01:26;;;;;;;4.63;2.33;;;;;;;-149.78;100.00;50391.25;5057740;28;20040;-60
2021/11/19 10:03:51;;;;;;;5.05;2.90;;;;;;;-149.78;100.00;50408.84;5065470;28;20037;-60
2021/11/19 10:06:34;;;;;;;3.53;2.70;;;;;;;-149.78;100.00;50414.72;5067844;28;20029;-61
2021/11/19 10:09:15;;;;;;;5.00;2.65;;;;;;;-149.78;100.00;50391.25;5066307;28;20025;-61
2021/11/19 10:11:55;;;;;;;3.50;2.67;;;;;;;-149.78;100.00;50389.31;5069599;28;20060;-62
2021/11/19 10:14:27;;;;;;;4.72;3.08;;;;;;;-149.78;100.00;50397.13;5068918;28;20041;-62
2021/11/19 10:17:02;;;;;;;3.90;2.30;;;;;;;-149.78;100.00;50420.59;5070526;28;20036;-62
2021/11/19 10:19:30;;;;;;;51.53;6.85;;;;;;;-149.78;100.00;50369.75;5065610;28;20028;-61
2021/11/19 10:22:44;;;;;;;11.43;2.80;;;;;;;-149.78;100.00;50391.25;5065285;28;20032;-61
2021/11/19 10:25:10;;;;;;;2.42;1.92;;;;;;;-149.78;100.00;50395.16;5041459;28;20044;-60
2021/11/19 10:27:43;;;;;;;2.75;2.05;;;;;;;-149.78;100.00;50377.56;5065836;28;20032;-62
2021/11/19 10:30:40;;;;;;;3.88;1.98;;;;;;;-149.78;100.00;50371.69;5060160;28;20044;-60
2021/11/19 10:33:24;;;;;;;3.05;1.70;;;;;;;-149.78;100.00;50389.31;5063968;28;20453;-60
2021/11/19 10:35:56;;;;;;;2.63;1.50;;;;;;;-149.78;100.00;50385.38;5067190;28;20033;-60
2021/11/19 10:38:41;;;;;;;1.80;1.60;;;;;;;-149.78;100.00;50389.31;5074242;28;20038;-60
2021/11/19 10:41:19;;;;;;;33.42;4.80;;;;;;;-149.78;100.00;50404.94;5054634;28;20430;-59
2021/11/19 10:44:22;;;;;;;7.68;1.63;;;;;;;-149.78;100.00;50373.66;5072590;28;20024;-60
2021/11/19 10:47:10;;;;;;;2.75;1.50;;;;;;;-149.78;100.00;50397.13;5070192;28;20350;-60
2021/11/19 10:50:13;;;;;;;1.73;1.30;;;;;;;-149.78;100.00;50401.03;5063148;28;20063;-60
2021/11/19 10:52:42;;;;;;;2.92;1.55;;;;;;;-149.78;100.00;50365.84;5062476;28;20514;-59
2021/11/19 10:55:20;;;;;;;4.25;1.70;;;;;;;-149.78;100.00;50389.31;5061372;28;20020;-59
2021/11/19 10:58:23;;;;;;;2.83;1.83;;;;;;;-149.78;100.00;50399.09;5073664;28;20040;-60
2021/11/19 11:00:58;;;;;;;3.58;2.65;;;;;;;-149.78;100.00;50377.56;5071351;28;20140;-60
2021/11/19 11:03:30;;;;;;;2.70;2.10;;;;;;;-149.78;100.00;50381.47;5073749;28;20468;-60
2021/11/19 11:06:06;;;;;;;3.25;2.25;;;;;;;-149.78;100.00;50375.63;5069202;28;20480;-60
2021/11/19 11:08:43;;;;;;;2.58;1.90;;;;;;;-149.78;100.00;50377.56;5070592;28;20039;-60
2021/11/19 11:11:31;;;;;;;4.78;2.17;;;;;;;-149.78;100.00;50358.00;5068100;28;20024;-60
2021/11/19 11:13:56;;;;;;;2.25;2.05;;;;;;;-149.78;100.00;50393.22;5069534;28;20042;-60
2021/11/19 11:16:45;;;;;;;2.22;1.83;;;;;;;-149.78;100.00;50359.97;5074151;28;20047;-60
2021/11/19 11:19:11;;;;;;;3.08;2.33;;;;;;;-149.78;100.00;50428.41;5069292;28;20702;-59
2021/11/19 11:21:41;;;;;;;2.95;2.13;;;;;;;-149.78;100.00;50412.78;5072140;28;20029;-60
2021/11/19 11:24:16;;;;;;;2.28;1.77;;;;;;;-149.78;100.00;50373.66;5068225;28;20040;-60